sensor_id;sensor_type;location;lat;lon;timestamp;P1;durP1;ratioP1;P2;durP2;ratioP2
35562;SDS011;21665;40.108;18.302;2023-04-15T00:02:18;14.93;;;8.55;;
35562;SDS011;21665;40.108;18.302;2023-04-15T00:04:45;18.65;;;9.18;;
35562;SDS011;21665;40.108;18.302;2023-04-15T00:07:12;18.98;;;9.35;;
35562;SDS011;21665;40.108;18.302;2023-04-15T00:09:42;19.17;;;8.88;;
35562;SDS011;21665;40.108;18.302;2023-04-15T00:12:09;15.55;;;8.77;;
35562;SDS011;21665;40.108;18.302;2023-04-15T00:14:37;19.63;;;7.78;;
35562;SDS011;21665;40.108;18.302;2023-04-15T00:17:06;20.33;;;7.50;;
35562;SDS011;21665;40.108;18.302;2023-04-15T00:19:33;19.10;;;7.28;;
35562;SDS011;21665;40.108;18.302;2023-04-15T00:21:59;16.13;;;7.20;;
35562;SDS011;21665;40.108;18.302;2023-04-15T00:24:26;17.00;;;7.40;;
35562;SDS011;21665;40.108;18.302;2023-04-15T00:26:52;21.77;;;7.45;;
35562;SDS011;21665;40.108;18.302;2023-04-15T00:29:19;14.05;;;7.63;;
35562;SDS011;21665;40.108;18.302;2023-04-15T00:31:46;12.73;;;7.50;;
35562;SDS011;21665;40.108;18.302;2023-04-15T00:34:13;16.75;;;6.70;;
35562;SDS011;21665;40.108;18.302;2023-04-15T00:36:42;18.00;;;6.60;;
35562;SDS011;21665;40.108;18.302;2023-04-15T00:39:09;16.33;;;5.82;;
35562;SDS011;21665;40.108;18.302;2023-04-15T00:41:36;16.83;;;6.15;;
35562;SDS011;21665;40.108;18.302;2023-04-15T00:44:07;17.65;;;6.43;;
35562;SDS011;21665;40.108;18.302;2023-04-15T00:46:35;22.15;;;5.88;;
35562;SDS011;21665;40.108;18.302;2023-04-15T00:49:03;18.02;;;5.70;;
35562;SDS011;21665;40.108;18.302;2023-04-15T00:51:34;17.02;;;6.00;;
35562;SDS011;21665;40.108;18.302;2023-04-15T00:54:02;17.77;;;6.28;;
35562;SDS011;21665;40.108;18.302;2023-04-15T00:56:29;17.42;;;5.85;;
35562;SDS011;21665;40.108;18.302;2023-04-15T00:58:56;13.98;;;5.45;;
35562;SDS011;21665;40.108;18.302;2023-04-15T01:01:24;14.80;;;5.18;;
35562;SDS011;21665;40.108;18.302;2023-04-15T01:03:51;16.70;;;5.30;;
35562;SDS011;21665;40.108;18.302;2023-04-15T01:06:18;17.63;;;5.70;;
35562;SDS011;21665;40.108;18.302;2023-04-15T01:08:45;21.13;;;5.10;;
35562;SDS011;21665;40.108;18.302;2023-04-15T01:11:12;13.75;;;5.57;;
35562;SDS011;21665;40.108;18.302;2023-04-15T01:13:40;11.10;;;5.10;;
35562;SDS011;21665;40.108;18.302;2023-04-15T01:16:07;17.25;;;5.80;;
35562;SDS011;21665;40.108;18.302;2023-04-15T01:18:34;15.57;;;5.40;;
35562;SDS011;21665;40.108;18.302;2023-04-15T01:21:05;12.52;;;4.88;;
35562;SDS011;21665;40.108;18.302;2023-04-15T01:23:33;13.52;;;5.53;;
35562;SDS011;21665;40.108;18.302;2023-04-15T01:26:07;18.35;;;5.60;;
35562;SDS011;21665;40.108;18.302;2023-04-15T01:28:34;15.55;;;5.40;;
35562;SDS011;21665;40.108;18.302;2023-04-15T01:31:09;21.73;;;7.00;;
35562;SDS011;21665;40.108;18.302;2023-04-15T01:33:38;18.52;;;6.47;;
35562;SDS011;21665;40.108;18.302;2023-04-15T01:36:07;15.68;;;6.00;;
35562;SDS011;21665;40.108;18.302;2023-04-15T01:38:36;19.88;;;6.15;;
35562;SDS011;21665;40.108;18.302;2023-04-15T01:41:03;16.60;;;5.40;;
35562;SDS011;21665;40.108;18.302;2023-04-15T01:43:32;17.88;;;4.93;;
35562;SDS011;21665;40.108;18.302;2023-04-15T01:45:59;17.83;;;4.68;;
35562;SDS011;21665;40.108;18.302;2023-04-15T01:48:26;37.60;;;5.93;;
35562;SDS011;21665;40.108;18.302;2023-04-15T01:50:53;15.60;;;4.65;;
35562;SDS011;21665;40.108;18.302;2023-04-15T01:53:21;23.50;;;6.35;;
35562;SDS011;21665;40.108;18.302;2023-04-15T01:55:49;14.65;;;4.82;;
35562;SDS011;21665;40.108;18.302;2023-04-15T01:58:17;25.63;;;4.97;;
35562;SDS011;21665;40.108;18.302;2023-04-15T02:00:43;19.10;;;5.13;;
35562;SDS011;21665;40.108;18.302;2023-04-15T02:03:10;12.60;;;5.10;;
35562;SDS011;21665;40.108;18.302;2023-04-15T02:05:36;21.85;;;5.10;;
35562;SDS011;21665;40.108;18.302;2023-04-15T02:08:03;15.02;;;5.70;;
35562;SDS011;21665;40.108;18.302;2023-04-15T02:10:30;13.80;;;4.95;;
35562;SDS011;21665;40.108;18.302;2023-04-15T02:12:57;11.23;;;4.40;;
35562;SDS011;21665;40.108;18.302;2023-04-15T02:15:26;14.95;;;4.80;;
35562;SDS011;21665;40.108;18.302;2023-04-15T02:17:52;12.02;;;4.72;;
35562;SDS011;21665;40.108;18.302;2023-04-15T02:20:20;11.88;;;4.43;;
35562;SDS011;21665;40.108;18.302;2023-04-15T02:22:47;16.95;;;5.25;;
35562;SDS011;21665;40.108;18.302;2023-04-15T02:25:14;19.60;;;4.50;;
35562;SDS011;21665;40.108;18.302;2023-04-15T02:27:43;9.07;;;4.68;;
35562;SDS011;21665;40.108;18.302;2023-04-15T02:30:10;19.73;;;5.47;;
35562;SDS011;21665;40.108;18.302;2023-04-15T02:32:37;14.45;;;5.07;;
35562;SDS011;21665;40.108;18.302;2023-04-15T02:35:04;18.40;;;5.55;;
35562;SDS011;21665;40.108;18.302;2023-04-15T02:37:32;17.02;;;5.03;;
35562;SDS011;21665;40.108;18.302;2023-04-15T02:40:08;16.13;;;4.85;;
35562;SDS011;21665;40.108;18.302;2023-04-15T02:42:38;15.65;;;5.68;;
35562;SDS011;21665;40.108;18.302;2023-04-15T02:45:09;12.20;;;4.97;;
35562;SDS011;21665;40.108;18.302;2023-04-15T02:47:40;14.48;;;4.80;;
35562;SDS011;21665;40.108;18.302;2023-04-15T02:50:10;22.15;;;4.85;;
35562;SDS011;21665;40.108;18.302;2023-04-15T02:52:39;7.18;;;4.05;;
35562;SDS011;21665;40.108;18.302;2023-04-15T02:55:09;17.38;;;4.70;;
35562;SDS011;21665;40.108;18.302;2023-04-15T02:57:36;13.05;;;4.50;;
35562;SDS011;21665;40.108;18.302;2023-04-15T03:00:06;20.35;;;5.40;;
35562;SDS011;21665;40.108;18.302;2023-04-15T03:02:39;20.50;;;5.72;;
35562;SDS011;21665;40.108;18.302;2023-04-15T03:05:10;13.75;;;6.18;;
35562;SDS011;21665;40.108;18.302;2023-04-15T03:07:42;17.95;;;5.20;;
35562;SDS011;21665;40.108;18.302;2023-04-15T03:10:10;16.17;;;5.20;;
35562;SDS011;21665;40.108;18.302;2023-04-15T03:12:36;22.98;;;5.40;;
35562;SDS011;21665;40.108;18.302;2023-04-15T03:15:03;10.35;;;5.20;;
35562;SDS011;21665;40.108;18.302;2023-04-15T03:17:37;18.98;;;6.38;;
35562;SDS011;21665;40.108;18.302;2023-04-15T03:20:04;12.15;;;5.80;;
35562;SDS011;21665;40.108;18.302;2023-04-15T03:22:31;11.63;;;5.43;;
35562;SDS011;21665;40.108;18.302;2023-04-15T03:24:58;12.70;;;5.82;;
35562;SDS011;21665;40.108;18.302;2023-04-15T03:27:24;15.70;;;5.97;;
35562;SDS011;21665;40.108;18.302;2023-04-15T03:29:54;11.70;;;5.75;;
35562;SDS011;21665;40.108;18.302;2023-04-15T03:32:24;12.48;;;5.97;;
35562;SDS011;21665;40.108;18.302;2023-04-15T03:34:52;10.27;;;5.47;;
35562;SDS011;21665;40.108;18.302;2023-04-15T03:37:19;18.80;;;5.50;;
35562;SDS011;21665;40.108;18.302;2023-04-15T03:39:45;14.85;;;5.20;;
35562;SDS011;21665;40.108;18.302;2023-04-15T03:42:11;11.70;;;5.40;;
35562;SDS011;21665;40.108;18.302;2023-04-15T03:44:38;15.98;;;5.20;;
35562;SDS011;21665;40.108;18.302;2023-04-15T03:47:04;14.13;;;4.80;;
35562;SDS011;21665;40.108;18.302;2023-04-15T03:49:31;11.10;;;4.70;;
35562;SDS011;21665;40.108;18.302;2023-04-15T03:51:57;10.93;;;4.78;;
35562;SDS011;21665;40.108;18.302;2023-04-15T03:54:24;19.40;;;5.85;;
35562;SDS011;21665;40.108;18.302;2023-04-15T03:56:50;11.63;;;4.72;;
35562;SDS011;21665;40.108;18.302;2023-04-15T03:59:17;8.95;;;4.80;;
35562;SDS011;21665;40.108;18.302;2023-04-15T04:01:43;11.43;;;4.60;;
35562;SDS011;21665;40.108;18.302;2023-04-15T04:04:10;11.27;;;4.82;;
35562;SDS011;21665;40.108;18.302;2023-04-15T04:06:36;12.38;;;4.82;;
35562;SDS011;21665;40.108;18.302;2023-04-15T04:09:03;8.50;;;4.80;;
35562;SDS011;21665;40.108;18.302;2023-04-15T04:11:29;15.93;;;5.63;;
35562;SDS011;21665;40.108;18.302;2023-04-15T04:13:56;13.40;;;4.80;;
35562;SDS011;21665;40.108;18.302;2023-04-15T04:16:22;20.55;;;5.00;;
35562;SDS011;21665;40.108;18.302;2023-04-15T04:18:49;16.70;;;4.53;;
35562;SDS011;21665;40.108;18.302;2023-04-15T04:21:15;10.70;;;4.50;;
35562;SDS011;21665;40.108;18.302;2023-04-15T04:23:42;14.43;;;5.18;;
35562;SDS011;21665;40.108;18.302;2023-04-15T04:26:08;14.43;;;5.15;;
35562;SDS011;21665;40.108;18.302;2023-04-15T04:28:35;7.18;;;5.20;;
35562;SDS011;21665;40.108;18.302;2023-04-15T04:31:04;10.95;;;5.97;;
35562;SDS011;21665;40.108;18.302;2023-04-15T04:33:33;15.57;;;6.03;;
35562;SDS011;21665;40.108;18.302;2023-04-15T04:35:59;16.13;;;5.57;;
35562;SDS011;21665;40.108;18.302;2023-04-15T04:38:26;14.80;;;5.32;;
35562;SDS011;21665;40.108;18.302;2023-04-15T04:40:52;15.77;;;5.88;;
35562;SDS011;21665;40.108;18.302;2023-04-15T04:43:19;15.73;;;6.78;;
35562;SDS011;21665;40.108;18.302;2023-04-15T04:45:45;12.40;;;6.40;;
35562;SDS011;21665;40.108;18.302;2023-04-15T04:48:11;19.27;;;6.45;;
35562;SDS011;21665;40.108;18.302;2023-04-15T04:50:38;13.60;;;6.50;;
35562;SDS011;21665;40.108;18.302;2023-04-15T04:53:04;14.80;;;6.78;;
35562;SDS011;21665;40.108;18.302;2023-04-15T04:55:31;12.25;;;6.57;;
35562;SDS011;21665;40.108;18.302;2023-04-15T04:57:57;13.52;;;6.88;;
35562;SDS011;21665;40.108;18.302;2023-04-15T05:00:23;16.58;;;7.57;;
35562;SDS011;21665;40.108;18.302;2023-04-15T05:02:50;14.63;;;7.32;;
35562;SDS011;21665;40.108;18.302;2023-04-15T05:05:16;18.38;;;9.25;;
35562;SDS011;21665;40.108;18.302;2023-04-15T05:07:43;16.48;;;9.52;;
35562;SDS011;21665;40.108;18.302;2023-04-15T05:10:09;16.00;;;10.73;;
35562;SDS011;21665;40.108;18.302;2023-04-15T05:12:36;17.52;;;12.70;;
35562;SDS011;21665;40.108;18.302;2023-04-15T05:15:04;16.27;;;13.73;;
35562;SDS011;21665;40.108;18.302;2023-04-15T05:17:31;19.02;;;14.45;;
35562;SDS011;21665;40.108;18.302;2023-04-15T05:20:00;17.00;;;15.50;;
35562;SDS011;21665;40.108;18.302;2023-04-15T05:22:27;18.25;;;15.65;;
35562;SDS011;21665;40.108;18.302;2023-04-15T05:24:53;17.75;;;15.82;;
35562;SDS011;21665;40.108;18.302;2023-04-15T05:27:20;18.08;;;16.15;;
35562;SDS011;21665;40.108;18.302;2023-04-15T05:29:48;17.25;;;15.57;;
35562;SDS011;21665;40.108;18.302;2023-04-15T05:32:15;16.00;;;14.52;;
35562;SDS011;21665;40.108;18.302;2023-04-15T05:34:42;17.63;;;14.95;;
35562;SDS011;21665;40.108;18.302;2023-04-15T05:37:08;15.77;;;14.20;;
35562;SDS011;21665;40.108;18.302;2023-04-15T05:39:35;16.65;;;15.00;;
35562;SDS011;21665;40.108;18.302;2023-04-15T05:42:01;16.17;;;14.95;;
35562;SDS011;21665;40.108;18.302;2023-04-15T05:44:27;16.13;;;14.50;;
35562;SDS011;21665;40.108;18.302;2023-04-15T05:46:54;17.08;;;15.10;;
35562;SDS011;21665;40.108;18.302;2023-04-15T05:49:21;17.38;;;15.77;;
35562;SDS011;21665;40.108;18.302;2023-04-15T05:51:47;17.58;;;15.90;;
35562;SDS011;21665;40.108;18.302;2023-04-15T05:54:14;17.92;;;16.38;;
35562;SDS011;21665;40.108;18.302;2023-04-15T05:56:41;24.50;;;16.55;;
35562;SDS011;21665;40.108;18.302;2023-04-15T05:59:09;19.42;;;16.15;;
35562;SDS011;21665;40.108;18.302;2023-04-15T06:01:36;17.48;;;16.10;;
35562;SDS011;21665;40.108;18.302;2023-04-15T06:04:02;18.52;;;16.60;;
35562;SDS011;21665;40.108;18.302;2023-04-15T06:06:29;17.35;;;15.85;;
35562;SDS011;21665;40.108;18.302;2023-04-15T06:08:57;18.88;;;16.65;;
35562;SDS011;21665;40.108;18.302;2023-04-15T06:11:23;18.10;;;16.67;;
35562;SDS011;21665;40.108;18.302;2023-04-15T06:13:51;19.13;;;17.52;;
35562;SDS011;21665;40.108;18.302;2023-04-15T06:16:17;18.63;;;17.23;;
35562;SDS011;21665;40.108;18.302;2023-04-15T06:18:44;19.40;;;17.50;;
35562;SDS011;21665;40.108;18.302;2023-04-15T06:21:10;19.90;;;18.10;;
35562;SDS011;21665;40.108;18.302;2023-04-15T06:23:37;19.33;;;17.55;;
35562;SDS011;21665;40.108;18.302;2023-04-15T06:26:05;20.35;;;18.45;;
35562;SDS011;21665;40.108;18.302;2023-04-15T08:52:45;22.25;;;20.20;;
35562;SDS011;21665;40.108;18.302;2023-04-15T08:55:11;21.50;;;19.83;;
35562;SDS011;21665;40.108;18.302;2023-04-15T08:57:39;21.20;;;19.70;;
35562;SDS011;21665;40.108;18.302;2023-04-15T09:00:06;21.75;;;20.02;;
35562;SDS011;21665;40.108;18.302;2023-04-15T09:02:34;21.85;;;20.25;;
35562;SDS011;21665;40.108;18.302;2023-04-15T09:05:01;21.90;;;20.30;;
35562;SDS011;21665;40.108;18.302;2023-04-15T09:07:32;34.30;;;23.85;;
35562;SDS011;21665;40.108;18.302;2023-04-15T09:10:02;33.47;;;23.25;;
35562;SDS011;21665;40.108;18.302;2023-04-15T09:12:30;22.52;;;20.35;;
35562;SDS011;21665;40.108;18.302;2023-04-15T09:15:01;31.10;;;22.73;;
35562;SDS011;21665;40.108;18.302;2023-04-15T09:17:28;46.78;;;23.95;;
35562;SDS011;21665;40.108;18.302;2023-04-15T09:20:10;22.15;;;20.15;;
35562;SDS011;21665;40.108;18.302;2023-04-15T09:22:38;22.42;;;20.52;;
35562;SDS011;21665;40.108;18.302;2023-04-15T09:27:48;24.65;;;22.15;;
35562;SDS011;21665;40.108;18.302;2023-04-15T09:30:16;21.90;;;20.38;;
35562;SDS011;21665;40.108;18.302;2023-04-15T09:32:49;21.35;;;19.73;;
35562;SDS011;21665;40.108;18.302;2023-04-15T09:35:22;37.00;;;22.17;;
35562;SDS011;21665;40.108;18.302;2023-04-15T09:37:49;39.22;;;23.13;;
35562;SDS011;21665;40.108;18.302;2023-04-15T09:40:33;37.25;;;24.10;;
35562;SDS011;21665;40.108;18.302;2023-04-15T09:43:04;21.38;;;19.63;;
35562;SDS011;21665;40.108;18.302;2023-04-15T09:45:32;36.40;;;23.95;;
35562;SDS011;21665;40.108;18.302;2023-04-15T09:48:16;22.05;;;20.00;;
35562;SDS011;21665;40.108;18.302;2023-04-15T09:50:56;21.13;;;18.90;;
35562;SDS011;21665;40.108;18.302;2023-04-15T09:53:29;21.08;;;19.02;;
35562;SDS011;21665;40.108;18.302;2023-04-15T09:56:00;20.73;;;18.83;;
35562;SDS011;21665;40.108;18.302;2023-04-15T09:58:27;23.55;;;18.73;;
35562;SDS011;21665;40.108;18.302;2023-04-15T10:01:03;21.65;;;19.13;;
35562;SDS011;21665;40.108;18.302;2023-04-15T10:03:34;20.20;;;18.58;;
35562;SDS011;21665;40.108;18.302;2023-04-15T10:06:03;21.25;;;19.45;;
35562;SDS011;21665;40.108;18.302;2023-04-15T10:08:33;20.38;;;18.63;;
35562;SDS011;21665;40.108;18.302;2023-04-15T10:11:00;20.85;;;18.67;;
35562;SDS011;21665;40.108;18.302;2023-04-15T10:13:30;20.70;;;18.70;;
35562;SDS011;21665;40.108;18.302;2023-04-15T10:16:14;24.13;;;19.38;;
35562;SDS011;21665;40.108;18.302;2023-04-15T10:18:45;25.08;;;19.38;;
35562;SDS011;21665;40.108;18.302;2023-04-15T10:21:17;42.05;;;21.25;;
35562;SDS011;21665;40.108;18.302;2023-04-15T10:23:50;29.90;;;20.60;;
35562;SDS011;21665;40.108;18.302;2023-04-15T10:26:16;31.33;;;21.15;;
35562;SDS011;21665;40.108;18.302;2023-04-15T10:28:43;28.15;;;20.67;;
35562;SDS011;21665;40.108;18.302;2023-04-15T10:31:11;24.50;;;20.30;;
35562;SDS011;21665;40.108;18.302;2023-04-15T10:33:43;30.77;;;19.90;;
35562;SDS011;21665;40.108;18.302;2023-04-15T10:36:10;29.42;;;19.25;;
35562;SDS011;21665;40.108;18.302;2023-04-15T10:38:43;30.13;;;20.05;;
35562;SDS011;21665;40.108;18.302;2023-04-15T10:43:49;19.70;;;18.10;;
35562;SDS011;21665;40.108;18.302;2023-04-15T10:46:21;19.50;;;17.92;;
35562;SDS011;21665;40.108;18.302;2023-04-15T10:48:48;21.88;;;19.75;;
35562;SDS011;21665;40.108;18.302;2023-04-15T10:51:25;24.52;;;20.70;;
35562;SDS011;21665;40.108;18.302;2023-04-15T10:53:56;35.17;;;22.63;;
35562;SDS011;21665;40.108;18.302;2023-04-15T10:56:29;37.22;;;23.30;;
35562;SDS011;21665;40.108;18.302;2023-04-15T10:58:57;44.65;;;22.70;;
35562;SDS011;21665;40.108;18.302;2023-04-15T11:12:46;42.00;;;23.60;;
35562;SDS011;21665;40.108;18.302;2023-04-15T11:18:14;23.17;;;20.73;;
35562;SDS011;21665;40.108;18.302;2023-04-15T11:20:49;21.45;;;19.73;;
35562;SDS011;21665;40.108;18.302;2023-04-15T11:23:17;21.83;;;19.90;;
35562;SDS011;21665;40.108;18.302;2023-04-15T11:25:44;22.38;;;20.40;;
35562;SDS011;21665;40.108;18.302;2023-04-15T11:28:11;20.92;;;19.42;;
35562;SDS011;21665;40.108;18.302;2023-04-15T11:30:38;21.55;;;19.85;;
35562;SDS011;21665;40.108;18.302;2023-04-15T11:33:07;21.65;;;20.02;;
35562;SDS011;21665;40.108;18.302;2023-04-15T11:35:37;22.10;;;20.35;;
35562;SDS011;21665;40.108;18.302;2023-04-15T11:38:12;22.17;;;20.67;;
35562;SDS011;21665;40.108;18.302;2023-04-15T11:40:40;21.05;;;19.52;;
35562;SDS011;21665;40.108;18.302;2023-04-15T11:43:12;25.75;;;21.33;;
35562;SDS011;21665;40.108;18.302;2023-04-15T11:45:52;43.50;;;23.23;;
35562;SDS011;21665;40.108;18.302;2023-04-15T11:48:21;28.45;;;21.13;;
35562;SDS011;21665;40.108;18.302;2023-04-15T11:50:59;21.98;;;19.95;;
35562;SDS011;21665;40.108;18.302;2023-04-15T11:53:37;30.63;;;21.50;;
35562;SDS011;21665;40.108;18.302;2023-04-15T11:56:08;22.48;;;20.70;;
35562;SDS011;21665;40.108;18.302;2023-04-15T11:58:37;23.80;;;21.00;;
35562;SDS011;21665;40.108;18.302;2023-04-15T12:01:05;55.00;;;26.98;;
35562;SDS011;21665;40.108;18.302;2023-04-15T12:03:41;38.35;;;23.05;;
35562;SDS011;21665;40.108;18.302;2023-04-15T12:06:13;21.95;;;20.15;;
35562;SDS011;21665;40.108;18.302;2023-04-15T12:11:36;20.65;;;19.05;;
35562;SDS011;21665;40.108;18.302;2023-04-15T12:16:48;50.63;;;26.92;;
35562;SDS011;21665;40.108;18.302;2023-04-15T12:19:28;35.40;;;22.27;;
35562;SDS011;21665;40.108;18.302;2023-04-15T12:22:03;57.00;;;25.83;;
35562;SDS011;21665;40.108;18.302;2023-04-15T12:24:32;40.90;;;24.73;;
35562;SDS011;21665;40.108;18.302;2023-04-15T12:27:01;27.73;;;21.63;;
35562;SDS011;21665;40.108;18.302;2023-04-15T12:29:33;22.48;;;20.17;;
35562;SDS011;21665;40.108;18.302;2023-04-15T12:32:13;48.72;;;22.75;;
35562;SDS011;21665;40.108;18.302;2023-04-15T12:34:48;22.65;;;20.30;;
35562;SDS011;21665;40.108;18.302;2023-04-15T12:37:17;24.35;;;21.33;;
35562;SDS011;21665;40.108;18.302;2023-04-15T12:39:44;33.97;;;23.10;;
35562;SDS011;21665;40.108;18.302;2023-04-15T12:42:14;22.23;;;20.33;;
35562;SDS011;21665;40.108;18.302;2023-04-15T12:44:41;22.88;;;20.48;;
35562;SDS011;21665;40.108;18.302;2023-04-15T12:47:08;35.92;;;24.45;;
35562;SDS011;21665;40.108;18.302;2023-04-15T12:49:36;32.03;;;23.30;;
35562;SDS011;21665;40.108;18.302;2023-04-15T12:52:04;24.20;;;21.92;;
35562;SDS011;21665;40.108;18.302;2023-04-15T12:54:31;30.02;;;22.27;;
35562;SDS011;21665;40.108;18.302;2023-04-15T12:56:58;25.20;;;22.25;;
35562;SDS011;21665;40.108;18.302;2023-04-15T12:59:25;31.92;;;25.13;;
35562;SDS011;21665;40.108;18.302;2023-04-15T13:01:53;57.28;;;25.70;;
35562;SDS011;21665;40.108;18.302;2023-04-15T13:04:20;29.50;;;22.52;;
35562;SDS011;21665;40.108;18.302;2023-04-15T13:06:47;36.08;;;24.15;;
35562;SDS011;21665;40.108;18.302;2023-04-15T13:09:14;38.22;;;23.50;;
35562;SDS011;21665;40.108;18.302;2023-04-15T13:11:41;21.05;;;19.50;;
35562;SDS011;21665;40.108;18.302;2023-04-15T13:14:08;21.63;;;19.80;;
35562;SDS011;21665;40.108;18.302;2023-04-15T13:16:38;21.40;;;19.20;;
35562;SDS011;21665;40.108;18.302;2023-04-15T13:19:05;21.73;;;19.45;;
35562;SDS011;21665;40.108;18.302;2023-04-15T13:21:32;21.67;;;19.52;;
35562;SDS011;21665;40.108;18.302;2023-04-15T13:24:00;21.00;;;19.15;;
35562;SDS011;21665;40.108;18.302;2023-04-15T13:26:26;21.58;;;19.73;;
35562;SDS011;21665;40.108;18.302;2023-04-15T13:28:53;22.40;;;20.20;;
35562;SDS011;21665;40.108;18.302;2023-04-15T13:31:20;22.88;;;20.80;;
35562;SDS011;21665;40.108;18.302;2023-04-15T13:33:47;21.83;;;19.77;;
35562;SDS011;21665;40.108;18.302;2023-04-15T13:36:13;21.38;;;19.42;;
35562;SDS011;21665;40.108;18.302;2023-04-15T13:38:40;21.80;;;19.55;;
35562;SDS011;21665;40.108;18.302;2023-04-15T13:41:12;20.75;;;19.10;;
35562;SDS011;21665;40.108;18.302;2023-04-15T13:43:38;21.50;;;19.80;;
35562;SDS011;21665;40.108;18.302;2023-04-15T13:46:10;21.33;;;19.63;;
35562;SDS011;21665;40.108;18.302;2023-04-15T13:48:40;21.95;;;20.02;;
35562;SDS011;21665;40.108;18.302;2023-04-15T13:51:06;22.05;;;20.05;;
35562;SDS011;21665;40.108;18.302;2023-04-15T13:53:33;22.17;;;19.90;;
35562;SDS011;21665;40.108;18.302;2023-04-15T13:56:01;22.42;;;20.17;;
35562;SDS011;21665;40.108;18.302;2023-04-15T13:58:30;21.70;;;19.70;;
35562;SDS011;21665;40.108;18.302;2023-04-15T14:00:56;22.08;;;20.25;;
35562;SDS011;21665;40.108;18.302;2023-04-15T14:03:23;22.45;;;20.38;;
35562;SDS011;21665;40.108;18.302;2023-04-15T14:05:49;22.00;;;19.85;;
35562;SDS011;21665;40.108;18.302;2023-04-15T14:08:21;22.25;;;20.25;;
35562;SDS011;21665;40.108;18.302;2023-04-15T14:10:48;22.00;;;19.83;;
35562;SDS011;21665;40.108;18.302;2023-04-15T14:13:15;21.90;;;19.98;;
35562;SDS011;21665;40.108;18.302;2023-04-15T14:15:44;22.27;;;20.50;;
35562;SDS011;21665;40.108;18.302;2023-04-15T14:18:11;21.85;;;19.83;;
35562;SDS011;21665;40.108;18.302;2023-04-15T14:20:38;21.23;;;19.38;;
35562;SDS011;21665;40.108;18.302;2023-04-15T14:23:04;20.85;;;18.73;;
35562;SDS011;21665;40.108;18.302;2023-04-15T14:25:31;22.58;;;19.50;;
35562;SDS011;21665;40.108;18.302;2023-04-15T14:27:57;20.70;;;18.85;;
35562;SDS011;21665;40.108;18.302;2023-04-15T14:30:24;22.17;;;19.90;;
35562;SDS011;21665;40.108;18.302;2023-04-15T14:32:50;21.25;;;19.48;;
35562;SDS011;21665;40.108;18.302;2023-04-15T14:35:17;20.95;;;19.20;;
35562;SDS011;21665;40.108;18.302;2023-04-15T14:37:43;21.05;;;18.88;;
35562;SDS011;21665;40.108;18.302;2023-04-15T14:40:10;24.00;;;19.35;;
35562;SDS011;21665;40.108;18.302;2023-04-15T14:42:37;21.10;;;19.10;;
35562;SDS011;21665;40.108;18.302;2023-04-15T14:45:04;21.10;;;18.92;;
35562;SDS011;21665;40.108;18.302;2023-04-15T14:47:31;20.55;;;18.80;;
35562;SDS011;21665;40.108;18.302;2023-04-15T14:50:00;19.58;;;18.00;;
35562;SDS011;21665;40.108;18.302;2023-04-15T14:52:29;19.98;;;17.95;;
35562;SDS011;21665;40.108;18.302;2023-04-15T14:55:10;19.90;;;18.08;;
35562;SDS011;21665;40.108;18.302;2023-04-15T14:57:37;19.88;;;17.95;;
35562;SDS011;21665;40.108;18.302;2023-04-15T15:00:05;19.17;;;17.35;;
35562;SDS011;21665;40.108;18.302;2023-04-15T15:02:39;19.42;;;17.55;;
35562;SDS011;21665;40.108;18.302;2023-04-15T15:13:17;20.08;;;18.00;;
35562;SDS011;21665;40.108;18.302;2023-04-15T15:15:47;19.77;;;18.13;;
35562;SDS011;21665;40.108;18.302;2023-04-15T15:18:21;19.63;;;17.88;;
35562;SDS011;21665;40.108;18.302;2023-04-15T15:20:56;20.17;;;18.05;;
35562;SDS011;21665;40.108;18.302;2023-04-15T15:23:26;20.15;;;18.38;;
35562;SDS011;21665;40.108;18.302;2023-04-15T15:25:54;20.05;;;18.10;;
35562;SDS011;21665;40.108;18.302;2023-04-15T15:29:03;19.95;;;18.38;;
35562;SDS011;21665;40.108;18.302;2023-04-15T15:31:30;19.63;;;18.10;;
35562;SDS011;21665;40.108;18.302;2023-04-15T16:40:29;20.55;;;16.65;;
35562;SDS011;21665;40.108;18.302;2023-04-15T16:42:57;19.50;;;17.40;;
35562;SDS011;21665;40.108;18.302;2023-04-15T16:45:23;20.33;;;18.10;;
35562;SDS011;21665;40.108;18.302;2023-04-15T16:47:50;21.35;;;18.17;;
35562;SDS011;21665;40.108;18.302;2023-04-15T16:50:16;19.42;;;17.30;;
35562;SDS011;21665;40.108;18.302;2023-04-15T16:52:46;20.30;;;17.88;;
35562;SDS011;21665;40.108;18.302;2023-04-15T16:55:12;21.55;;;18.00;;
35562;SDS011;21665;40.108;18.302;2023-04-15T16:57:39;26.70;;;23.42;;
35562;SDS011;21665;40.108;18.302;2023-04-15T17:00:05;19.38;;;17.45;;
35562;SDS011;21665;40.108;18.302;2023-04-15T17:02:32;20.30;;;18.17;;
35562;SDS011;21665;40.108;18.302;2023-04-15T17:04:59;19.70;;;18.00;;
35562;SDS011;21665;40.108;18.302;2023-04-15T17:07:26;26.40;;;19.85;;
35562;SDS011;21665;40.108;18.302;2023-04-15T17:09:52;19.85;;;18.13;;
35562;SDS011;21665;40.108;18.302;2023-04-15T17:12:19;20.02;;;18.00;;
35562;SDS011;21665;40.108;18.302;2023-04-15T17:14:46;22.65;;;18.10;;
35562;SDS011;21665;40.108;18.302;2023-04-15T17:17:12;19.85;;;18.10;;
35562;SDS011;21665;40.108;18.302;2023-04-15T17:19:43;21.08;;;19.17;;
35562;SDS011;21665;40.108;18.302;2023-04-15T17:22:10;22.33;;;19.73;;
35562;SDS011;21665;40.108;18.302;2023-04-15T17:24:36;27.17;;;19.50;;
35562;SDS011;21665;40.108;18.302;2023-04-15T17:27:05;21.00;;;18.88;;
35562;SDS011;21665;40.108;18.302;2023-04-15T17:29:32;21.52;;;19.10;;
35562;SDS011;21665;40.108;18.302;2023-04-15T17:31:58;20.65;;;18.52;;
35562;SDS011;21665;40.108;18.302;2023-04-15T17:34:26;20.92;;;18.35;;
35562;SDS011;21665;40.108;18.302;2023-04-15T17:36:54;20.48;;;18.35;;
35562;SDS011;21665;40.108;18.302;2023-04-15T17:39:25;27.23;;;19.65;;
35562;SDS011;21665;40.108;18.302;2023-04-15T17:41:52;20.77;;;18.75;;
35562;SDS011;21665;40.108;18.302;2023-04-15T17:44:18;20.42;;;18.25;;
35562;SDS011;21665;40.108;18.302;2023-04-15T17:46:45;19.90;;;18.20;;
35562;SDS011;21665;40.108;18.302;2023-04-15T17:49:12;20.05;;;17.83;;
35562;SDS011;21665;40.108;18.302;2023-04-15T17:51:38;27.20;;;20.08;;
35562;SDS011;21665;40.108;18.302;2023-04-15T17:54:07;20.58;;;18.55;;
35562;SDS011;21665;40.108;18.302;2023-04-15T17:56:33;20.85;;;17.52;;
35562;SDS011;21665;40.108;18.302;2023-04-15T17:59:05;20.05;;;17.77;;
35562;SDS011;21665;40.108;18.302;2023-04-15T18:01:33;21.43;;;17.90;;
35562;SDS011;21665;40.108;18.302;2023-04-15T18:04:00;22.58;;;17.73;;
35562;SDS011;21665;40.108;18.302;2023-04-15T18:06:26;21.42;;;19.15;;
35562;SDS011;21665;40.108;18.302;2023-04-15T18:08:53;20.42;;;16.80;;
35562;SDS011;21665;40.108;18.302;2023-04-15T18:11:19;22.67;;;16.45;;
35562;SDS011;21665;40.108;18.302;2023-04-15T18:13:46;23.98;;;16.23;;
35562;SDS011;21665;40.108;18.302;2023-04-15T18:16:12;20.23;;;15.35;;
35562;SDS011;21665;40.108;18.302;2023-04-15T18:18:39;24.13;;;14.95;;
35562;SDS011;21665;40.108;18.302;2023-04-15T18:21:05;19.40;;;14.48;;
35562;SDS011;21665;40.108;18.302;2023-04-15T18:23:32;21.52;;;14.23;;
35562;SDS011;21665;40.108;18.302;2023-04-15T18:25:58;15.45;;;13.88;;